Time;durP1;ratioP1;P1;durP2;ratioP2;P2;SDS_P1;SDS_P2;PMS_P1;PMS_P2;Temp;Humidity;BMP_temperature;BMP_pressure;BME280_temperature;BME280_humidity;BME280_pressure;Samples;Min_cycle;Max_cycle;Signal;HPM_P1;HPM_P2
2024/03/14 00:07:10;;;;;;;;;;;7.70;99.90;;;;;;21021739;28;19917;-76
2024/03/14 00:17:12;;;;;;;;;;;7.60;99.90;;;;;;21021285;28;19970;-77
2024/03/14 00:27:17;;;;;;;;;;;7.50;99.90;;;;;;21040796;28;19916;-77
2024/03/14 00:37:17;;;;;;;;;;;7.30;99.90;;;;;;21039632;28;20381;-77
2024/03/14 00:47:18;;;;;;;;;;;7.10;99.90;;;;;;21013050;28;19917;-77
2024/03/14 00:57:20;;;;;;;;;;;6.70;99.90;;;;;;21019181;28;20401;-77
2024/03/14 01:07:23;;;;;;;;;;;6.50;99.90;;;;;;21031543;28;19923;-77
2024/03/14 01:17:23;;;;;;;;;;;6.50;99.90;;;;;;21044825;28;20007;-78
2024/03/14 01:27:26;;;;;;;;;;;6.30;99.90;;;;;;21024594;28;19978;-77
2024/03/14 01:37:26;;;;;;;;;;;6.10;99.90;;;;;;21018270;28;19923;-77
2024/03/14 01:47:27;;;;;;;;;;;6.10;99.90;;;;;;21019420;28;19917;-78
2024/03/14 01:57:29;;;;;;;;;;;6.00;99.90;;;;;;21036594;28;19912;-77
2024/03/14 02:07:33;;;;;;;;;;;6.20;99.90;;;;;;21035682;28;20448;-78
2024/03/14 02:17:34;;;;;;;;;;;6.30;99.90;;;;;;21029021;28;19924;-78
2024/03/14 02:27:35;;;;;;;;;;;6.30;99.90;;;;;;21031771;28;19923;-78
2024/03/14 02:37:37;;;;;;;;;;;6.30;99.90;;;;;;21023954;28;21546;-78
2024/03/14 02:47:37;;;;;;;;;;;6.40;99.90;;;;;;21031460;28;20417;-78
2024/03/14 02:57:39;;;;;;;;;;;6.50;99.90;;;;;;21035010;28;19920;-78
2024/03/14 03:07:43;;;;;;;;;;;6.60;99.90;;;;;;21028497;28;20002;-78
2024/03/14 03:17:44;;;;;;;;;;;6.70;99.90;;;;;;21063539;28;19916;-77
2024/03/14 03:27:46;;;;;;;;;;;6.60;99.90;;;;;;21043101;28;20006;-77
2024/03/14 03:37:47;;;;;;;;;;;6.60;99.90;;;;;;21028164;28;19986;-77
2024/03/14 03:47:48;;;;;;;;;;;6.60;99.90;;;;;;21007506;28;20016;-77
2024/03/14 03:57:48;;;;;;;;;;;6.50;99.90;;;;;;21006901;28;19952;-77
2024/03/14 04:07:49;;;;;;;;;;;6.50;99.90;;;;;;21019155;28;19920;-77
2024/03/14 04:17:51;;;;;;;;;;;6.50;99.90;;;;;;21022545;28;19916;-77
2024/03/14 04:27:52;;;;;;;;;;;6.40;99.90;;;;;;21041308;28;19916;-77
2024/03/14 04:37:52;;;;;;;;;;;6.30;99.90;;;;;;21013801;28;19965;-77
2024/03/14 04:47:54;;;;;;;;;;;6.30;99.90;;;;;;21010368;28;19917;-76
2024/03/14 04:57:55;;;;;;;;;;;6.30;99.90;;;;;;21017779;28;20049;-73
2024/03/14 05:07:55;;;;;;;;;;;6.40;99.90;;;;;;21060013;28;20276;-78
2024/03/14 05:18:01;;;;;;;;;;;6.30;99.90;;;;;;21019363;28;19956;-76
2024/03/14 05:28:02;;;;;;;;;;;6.30;99.90;;;;;;21034778;28;19924;-78
2024/03/14 05:38:04;;;;;;;;;;;6.30;99.90;;;;;;21024827;28;19912;-78
2024/03/14 05:48:13;;;;;;;;;;;6.40;99.90;;;;;;21056106;28;20363;-78
2024/03/14 05:58:14;;;;;;;;;;;6.30;99.90;;;;;;21065449;28;19941;-79
2024/03/14 06:08:15;;;;;;;;;;;6.40;99.90;;;;;;21047377;28;19916;-79
2024/03/14 06:18:16;;;;;;;;;;;6.40;99.90;;;;;;21063926;28;20013;-77
2024/03/14 06:28:16;;;;;;;;;;;6.50;99.90;;;;;;21052067;28;19916;-79
2024/03/14 06:38:18;;;;;;;;;;;6.40;99.90;;;;;;21044565;28;19916;-78
2024/03/14 06:48:18;;;;;;;;;;;6.40;99.90;;;;;;21044036;28;19917;-78
2024/03/14 06:58:19;;;;;;;;;;;6.40;99.90;;;;;;21026372;28;19923;-79
2024/03/14 07:08:20;;;;;;;;;;;6.40;99.90;;;;;;21032412;28;19916;-78
2024/03/14 07:18:21;;;;;;;;;;;6.60;99.90;;;;;;21045947;28;19916;-77
2024/03/14 07:28:22;;;;;;;;;;;6.80;99.90;;;;;;21034696;28;19924;-78
2024/03/14 07:38:27;;;;;;;;;;;7.00;99.90;;;;;;21028240;28;19912;-78
2024/03/14 07:48:27;;;;;;;;;;;7.10;99.90;;;;;;21035286;28;19922;-78
2024/03/14 07:58:28;;;;;;;;;;;7.00;99.90;;;;;;21032488;28;19912;-78
2024/03/14 08:08:29;;;;;;;;;;;7.20;99.90;;;;;;21027567;28;20267;-77
2024/03/14 08:18:30;;;;;;;;;;;7.30;99.90;;;;;;21027110;28;19955;-78
2024/03/14 08:28:31;;;;;;;;;;;7.40;99.90;;;;;;21019752;28;19983;-78
2024/03/14 08:38:33;;;;;;;;;;;7.30;99.90;;;;;;21028189;28;19913;-77
2024/03/14 08:48:34;;;;;;;;;;;7.60;99.90;;;;;;21024846;28;19917;-77
2024/03/14 08:58:35;;;;;;;;;;;7.80;99.90;;;;;;21028802;28;20402;-78
2024/03/14 09:08:36;;;;;;;;;;;7.80;99.90;;;;;;21030088;28;20022;-77
2024/03/14 09:18:37;;;;;;;;;;;8.20;99.90;;;;;;21045661;28;19931;-78
2024/03/14 09:28:38;;;;;;;;;;;8.20;99.90;;;;;;21036144;28;19916;-77
2024/03/14 09:38:40;;;;;;;;;;;8.40;99.90;;;;;;21032367;28;19913;-78
2024/03/14 09:48:41;;;;;;;;;;;8.70;99.90;;;;;;21033370;28;19978;-78
2024/03/14 09:58:42;;;;;;;;;;;8.90;99.90;;;;;;21041057;28;19943;-78
2024/03/14 10:08:48;;;;;;;;;;;10.00;99.90;;;;;;21026151;28;20330;-77
2024/03/14 10:18:49;;;;;;;;;;;10.70;99.90;;;;;;21166201;28;19924;-77
2024/03/14 10:28:50;;;;;;;;;;;10.10;99.90;;;;;;21156463;28;20716;-77
2024/03/14 10:38:52;;;;;;;;;;;10.20;99.90;;;;;;21156137;28;19919;-77
2024/03/14 10:48:53;;;;;;;;;;;9.90;99.90;;;;;;21164214;28;19916;-77
2024/03/14 10:58:56;;;;;;;;;;;11.60;99.90;;;;;;21160998;28;19919;-77
2024/03/14 11:08:59;;;;;;;;;;;11.50;99.90;;;;;;21160874;28;19923;-77
2024/03/14 11:19:03;;;;;;;;;;;13.00;99.90;;;;;;21164468;28;19933;-76
2024/03/14 11:29:04;;;;;;;;;;;13.80;99.90;;;;;;21110411;28;19923;-76
2024/03/14 11:39:16;;;;;;;;;;;15.20;99.90;;;;;;21097905;28;20291;-76
2024/03/14 11:49:23;;;;;;;;;;;13.40;99.90;;;;;;21103391;28;20283;-76
2024/03/14 11:59:24;;;;;;;;;;;13.60;99.90;;;;;;21118362;28;19957;-76
2024/03/14 12:09:30;;;;;;;;;;;14.20;99.90;;;;;;21154587;28;19961;-76
2024/03/14 12:19:31;;;;;;;;;;;14.00;99.90;;;;;;21147763;28;20158;-76
2024/03/14 12:29:32;;;;;;;;;;;13.70;99.90;;;;;;21156009;28;19923;-75
2024/03/14 12:39:32;;;;;;;;;;;14.90;99.90;;;;;;21151626;28;20424;-76
2024/03/14 12:49:34;;;;;;;;;;;16.40;99.90;;;;;;21138716;28;19947;-75
2024/03/14 12:59:35;;;;;;;;;;;17.30;99.90;;;;;;21156392;28;19919;-76
2024/03/14 13:09:36;;;;;;;;;;;17.40;99.90;;;;;;21156745;28;19916;-76
2024/03/14 13:19:37;;;;;;;;;;;18.30;99.90;;;;;;21156319;28;19923;-76
2024/03/14 13:29:38;;;;;;;;;;;17.80;99.90;;;;;;21156002;28;19947;-76
2024/03/14 13:39:39;;;;;;;;;;;17.20;99.90;;;;;;21153776;28;19919;-76
2024/03/14 13:49:40;;;;;;;;;;;17.80;99.90;;;;;;21150936;28;19915;-76
2024/03/14 13:59:46;;;;;;;;;;;18.50;99.90;;;;;;21137056;28;19934;-76
2024/03/14 14:09:49;;;;;;;;;;;17.80;99.90;;;;;;21154628;28;20298;-76
2024/03/14 14:19:50;;;;;;;;;;;18.70;99.90;;;;;;21170085;28;20007;-76
2024/03/14 14:29:50;;;;;;;;;;;18.80;99.90;;;;;;21163482;28;19915;-77
2024/03/14 14:39:51;;;;;;;;;;;18.60;99.90;;;;;;21168419;28;20342;-75
2024/03/14 14:49:52;;;;;;;;;;;19.00;99.90;;;;;;21166807;28;19923;-76
2024/03/14 14:59:52;;;;;;;;;;;20.20;99.90;;;;;;21169241;28;20570;-77
2024/03/14 15:09:53;;;;;;;;;;;20.20;99.90;;;;;;21172567;28;19962;-77
2024/03/14 15:19:54;;;;;;;;;;;19.50;99.90;;;;;;21162952;28;19912;-77
2024/03/14 15:29:58;;;;;;;;;;;18.30;99.90;;;;;;21163829;28;19960;-78
2024/03/14 15:39:59;;;;;;;;;;;19.00;99.90;;;;;;21162030;28;19939;-76
2024/03/14 15:50:00;;;;;;;;;;;19.20;99.90;;;;;;21151351;28;20397;-78
2024/03/14 16:00:02;;;;;;;;;;;18.90;99.90;;;;;;21167131;28;19912;-77
2024/03/14 16:10:12;;;;;;;;;;;18.00;99.90;;;;;;21166526;28;20006;-78
2024/03/14 16:20:26;;;;;;;;;;;16.90;99.90;;;;;;21149073;28;19919;-78
2024/03/14 16:30:29;;;;;;;;;;;16.40;99.90;;;;;;21155500;28;19923;-79
2024/03/14 16:40:31;;;;;;;;;;;15.60;99.90;;;;;;21164102;28;19912;-78
2024/03/14 16:50:33;;;;;;;;;;;15.40;99.90;;;;;;21166894;28;19919;-79
2024/03/14 17:00:34;;;;;;;;;;;14.90;99.90;;;;;;21130861;28;20066;-76
2024/03/14 17:10:35;;;;;;;;;;;14.50;99.90;;;;;;21126170;28;19924;-79
2024/03/14 17:20:35;;;;;;;;;;;14.40;99.90;;;;;;21144158;28;19952;-78
2024/03/14 17:30:38;;;;;;;;;;;13.80;99.90;;;;;;21138655;28;19923;-78
2024/03/14 17:40:39;;;;;;;;;;;13.10;99.90;;;;;;21138579;28;19919;-78
2024/03/14 17:50:40;;;;;;;;;;;13.30;99.90;;;;;;21156200;28;20290;-79
2024/03/14 18:00:43;;;;;;;;;;;13.40;99.90;;;;;;21175941;28;19950;-80
2024/03/14 18:10:47;;;;;;;;;;;12.40;99.90;;;;;;21175095;28;20302;-79
2024/03/14 18:20:48;;;;;;;;;;;12.30;99.90;;;;;;21157173;28;19969;-79
2024/03/14 18:30:48;;;;;;;;;;;12.30;99.90;;;;;;21173602;28;20271;-78
2024/03/14 18:40:50;;;;;;;;;;;12.30;99.90;;;;;;21167687;28;19916;-78
2024/03/14 18:50:52;;;;;;;;;;;12.20;99.90;;;;;;21170996;28;19915;-79
2024/03/14 19:00:54;;;;;;;;;;;11.50;99.90;;;;;;21144033;28;20386;-79
2024/03/14 19:10:55;;;;;;;;;;;11.70;99.90;;;;;;21179515;28;19916;-80
2024/03/14 19:20:55;;;;;;;;;;;11.20;99.90;;;;;;21181458;28;19918;-79
2024/03/14 19:30:56;;;;;;;;;;;10.90;99.90;;;;;;21176960;28;20353;-79
2024/03/14 19:40:57;;;;;;;;;;;10.90;99.90;;;;;;21169867;28;19916;-80
2024/03/14 19:50:57;;;;;;;;;;;10.30;99.90;;;;;;21178015;28;20144;-80
2024/03/14 20:00:58;;;;;;;;;;;10.20;99.90;;;;;;21181614;28;19951;-79
2024/03/14 20:10:59;;;;;;;;;;;9.30;99.90;;;;;;21174501;28;19922;-79
2024/03/14 20:20:59;;;;;;;;;;;9.80;99.90;;;;;;21183917;28;19912;-80
2024/03/14 20:31:01;;;;;;;;;;;9.80;99.90;;;;;;21177147;28;19915;-80
2024/03/14 20:41:04;;;;;;;;;;;9.40;99.90;;;;;;21178295;28;19912;-81
2024/03/14 20:51:04;;;;;;;;;;;9.40;99.90;;;;;;21176965;28;19922;-80
2024/03/14 21:01:05;;;;;;;;;;;9.40;99.90;;;;;;21141199;28;19983;-81
2024/03/14 21:11:10;;;;;;;;;;;9.10;99.90;;;;;;21160569;28;19924;-77
2024/03/14 21:21:12;;;;;;;;;;;8.30;99.90;;;;;;21150166;28;20299;-77
2024/03/14 21:31:13;;;;;;;;;;;8.40;99.90;;;;;;21107013;28;19923;-77
2024/03/14 21:41:14;;;;;;;;;;;8.40;99.90;;;;;;21109512;28;19918;-78
2024/03/14 21:51:15;;;;;;;;;;;8.40;99.90;;;;;;21147270;28;19951;-77
2024/03/14 22:01:16;;;;;;;;;;;8.00;99.90;;;;;;21122293;28;19916;-78
2024/03/14 22:11:16;;;;;;;;;;;7.50;99.90;;;;;;21123507;28;19916;-77
2024/03/14 22:21:17;;;;;;;;;;;7.40;99.90;;;;;;21125145;28;19961;-78
2024/03/14 22:31:18;;;;;;;;;;;7.30;99.90;;;;;;21143014;28;19927;-79
2024/03/14 22:41:18;;;;;;;;;;;7.60;99.90;;;;;;21142034;28;19923;-80
2024/03/14 22:51:19;;;;;;;;;;;7.60;99.90;;;;;;21129062;28;19969;-80
2024/03/14 23:01:19;;;;;;;;;;;7.30;99.90;;;;;;21129782;28;20278;-81
2024/03/14 23:11:20;;;;;;;;;;;7.20;99.90;;;;;;21125004;28;19957;-76
2024/03/14 23:21:22;;;;;;;;;;;7.30;99.90;;;;;;21133282;28;19912;-79
2024/03/14 23:31:23;;;;;;;;;;;7.50;99.90;;;;;;21127704;28;20097;-80
2024/03/14 23:41:23;;;;;;;;;;;7.60;99.90;;;;;;21125527;28;19912;-80
2024/03/14 23:51:24;;;;;;;;;;;7.50;99.90;;;;;;21124796;28;19922;-80
